createdAt,value
2019-02-07T00:01:30.321Z,81.38
2019-02-07T00:06:32.785Z,81.90
2019-02-07T00:11:35.580Z,81.89
2019-02-07T00:16:38.450Z,82.43
2019-02-07T00:21:41.041Z,82.53
2019-02-07T00:26:43.440Z,80.78
2019-02-07T00:31:46.038Z,80.71
2019-02-07T00:36:48.710Z,80.02
2019-02-07T00:41:51.543Z,79.58
2019-02-07T00:46:54.040Z,80.30
2019-02-07T00:51:56.525Z,79.07
2019-02-07T00:56:59.016Z,79.30
2019-02-07T01:02:01.555Z,79.70
2019-02-07T01:07:04.597Z,80.69
2019-02-07T01:12:07.324Z,81.99
2019-02-07T01:17:09.975Z,83.24
2019-02-07T01:22:12.435Z,84.19
2019-02-07T01:27:14.840Z,83.29
2019-02-07T01:32:17.258Z,81.65
2019-02-07T01:37:19.779Z,82.89
2019-02-07T01:42:22.255Z,82.92
2019-02-07T01:47:24.929Z,83.37
2019-02-07T01:52:27.315Z,83.21
2019-02-07T01:57:29.850Z,83.14
2019-02-07T02:02:32.380Z,84.24
2019-02-07T02:07:34.810Z,85.01
2019-02-07T02:12:37.909Z,86.15
2019-02-07T02:17:40.430Z,83.65
2019-02-07T02:22:42.985Z,83.42
2019-02-07T02:27:45.672Z,84.11
2019-02-07T02:32:48.101Z,84.91
2019-02-07T02:37:50.594Z,85.55
2019-02-07T02:42:53.821Z,86.32
2019-02-07T02:47:56.450Z,86.93
2019-02-07T02:52:58.870Z,87.39
2019-02-07T02:58:01.463Z,88.04
2019-02-07T03:03:13.554Z,87.96
2019-02-07T03:08:25.567Z,86.82
2019-02-07T03:13:37.521Z,86.48
2019-02-07T03:18:49.744Z,86.02
2019-02-07T03:24:07.320Z,85.62
2019-02-07T03:29:18.576Z,84.31
2019-02-07T03:34:30.580Z,85.64
2019-02-07T03:39:43.410Z,85.63
2019-02-07T03:44:54.635Z,84.46
2019-02-07T03:50:06.639Z,85.08
2019-02-07T03:55:18.645Z,85.47
2019-02-07T04:00:31.005Z,85.83
2019-02-07T04:05:52.960Z,86.11
2019-02-07T04:11:04.525Z,85.68
2019-02-07T04:16:15.831Z,84.86
2019-02-07T04:21:27.380Z,84.20
2019-02-07T04:26:38.479Z,83.56
2019-02-07T04:32:00.439Z,82.71
2019-02-07T04:37:11.540Z,82.88
2019-02-07T04:42:24.663Z,82.87
2019-02-07T04:47:36.574Z,82.44
2019-02-07T04:52:48.584Z,81.95
2019-02-07T04:58:03.011Z,83.93
2019-02-07T05:03:25.105Z,85.46
2019-02-07T05:08:36.551Z,85.39
2019-02-07T05:13:53.334Z,85.74
2019-02-07T05:19:04.602Z,85.29
2019-02-07T05:24:20.835Z,85.08
2019-02-07T05:29:32.510Z,85.86
2019-02-07T05:34:43.531Z,86.36
2019-02-07T05:39:53.037Z,84.76
2019-02-07T05:45:04.520Z,84.32
2019-02-07T05:50:16.651Z,84.49
2019-02-07T05:55:28.644Z,85.62
2019-02-07T06:00:40.979Z,84.89
2019-02-07T06:05:52.505Z,85.00
2019-02-07T06:11:14.474Z,85.04
2019-02-07T06:16:27.159Z,85.06
2019-02-07T06:21:36.255Z,85.30
2019-02-07T06:26:47.821Z,85.54
2019-02-07T06:31:59.515Z,85.97
2019-02-07T06:37:16.184Z,86.09
2019-02-07T06:42:27.501Z,86.20
2019-02-07T06:47:49.450Z,86.46
2019-02-07T06:53:01.535Z,86.91
2019-02-07T06:58:13.566Z,86.97
2019-02-07T07:03:25.615Z,86.69
2019-02-07T07:08:47.680Z,85.29
2019-02-07T07:13:59.510Z,85.85
2019-02-07T07:19:14.065Z,86.07
2019-02-07T07:24:36.027Z,86.88
2019-02-07T07:29:51.115Z,87.29
2019-02-07T07:35:05.722Z,87.49
2019-02-07T07:40:18.660Z,87.70
2019-02-07T07:45:31.551Z,87.04
2019-02-07T07:50:36.512Z,86.43
2019-02-07T07:55:47.350Z,86.59
2019-02-07T08:00:52.445Z,87.35
2019-02-07T08:05:57.816Z,87.75
2019-02-07T08:11:12.540Z,87.93
2019-02-07T08:16:31.835Z,87.56
2019-02-07T08:21:44.389Z,87.60
2019-02-07T08:27:06.903Z,87.84
2019-02-07T08:32:18.583Z,87.99
2019-02-07T08:37:40.560Z,88.07
2019-02-07T08:42:59.265Z,88.03
2019-02-07T08:48:10.548Z,87.99
2019-02-07T08:53:24.440Z,86.76
2019-02-07T08:58:35.735Z,87.27
2019-02-07T09:03:47.021Z,87.65
2019-02-07T09:09:00.397Z,87.83
2019-02-07T09:14:10.076Z,87.26
2019-02-07T09:19:21.640Z,87.14
2019-02-07T09:24:33.550Z,86.81
2019-02-07T09:29:55.501Z,86.70
2019-02-07T09:35:05.925Z,86.50
2019-02-07T09:40:21.399Z,86.65
2019-02-07T09:45:32.526Z,87.51
2019-02-07T09:50:49.456Z,87.94
2019-02-07T09:56:05.832Z,84.00
2019-02-07T10:01:16.205Z,81.89
2019-02-07T10:06:27.733Z,80.36
2019-02-07T10:11:45.838Z,77.55
2019-02-07T10:17:07.926Z,77.88
2019-02-07T10:22:20.680Z,77.31
2019-02-07T10:27:32.635Z,74.35
2019-02-07T10:32:45.646Z,76.61
2019-02-07T10:37:59.287Z,78.33
2019-02-07T10:43:10.616Z,79.05
2019-02-07T10:48:22.543Z,79.25
2019-02-07T10:53:35.268Z,78.48
2019-02-07T10:58:46.754Z,78.29
2019-02-07T11:03:58.497Z,77.17
2019-02-07T11:09:09.550Z,76.83
2019-02-07T11:14:31.540Z,74.80
2019-02-07T11:19:43.955Z,72.16
2019-02-07T11:24:55.510Z,69.33
2019-02-07T11:30:06.980Z,64.90
2019-02-07T11:35:18.652Z,67.98
2019-02-07T11:40:29.447Z,70.50
2019-02-07T11:45:40.939Z,71.98
2019-02-07T11:50:56.531Z,72.59
2019-02-07T11:56:07.596Z,74.16
2019-02-07T12:01:23.311Z,75.64
2019-02-07T12:06:41.922Z,77.35
2019-02-07T12:11:53.530Z,77.83
2019-02-07T12:17:05.576Z,78.64
2019-02-07T12:22:19.461Z,79.28
2019-02-07T12:27:30.519Z,78.33
2019-02-07T12:32:39.320Z,76.97
2019-02-07T12:37:50.541Z,76.78
2019-02-07T12:43:04.042Z,76.12
2019-02-07T12:48:26.154Z,75.99
2019-02-07T12:53:48.179Z,73.70
2019-02-07T12:59:10.220Z,73.85
2019-02-07T13:04:22.543Z,74.42
2019-02-07T13:09:44.471Z,74.23
2019-02-07T13:14:57.548Z,74.23
2019-02-07T13:20:10.839Z,74.94
2019-02-07T13:25:22.670Z,75.70
2019-02-07T13:30:36.943Z,77.11
2019-02-07T13:35:48.575Z,77.96
2019-02-07T13:41:01.149Z,77.71
2019-02-07T13:46:13.615Z,78.46
2019-02-07T13:51:35.567Z,78.84
2019-02-07T13:56:57.530Z,78.13
2019-02-07T14:02:09.520Z,78.73
2019-02-07T14:07:25.704Z,79.36
2019-02-07T14:12:40.945Z,78.53
2019-02-07T14:17:52.495Z,80.02
2019-02-07T14:23:05.320Z,82.48
2019-02-07T14:28:17.594Z,83.96
2019-02-07T14:33:29.545Z,84.76
2019-02-07T14:38:41.680Z,85.50
2019-02-07T14:43:53.591Z,85.59
2019-02-07T14:48:56.230Z,85.94
2019-02-07T14:54:00.673Z,85.57
2019-02-07T14:59:02.857Z,85.73
2019-02-07T15:04:05.739Z,84.78
2019-02-07T15:09:14.671Z,84.61
2019-02-07T15:14:17.242Z,85.15
2019-02-07T15:19:19.679Z,84.75
2019-02-07T15:24:22.624Z,85.00
2019-02-07T15:29:25.264Z,85.27
2019-02-07T15:34:27.862Z,85.07
2019-02-07T15:39:30.445Z,84.99
2019-02-07T15:44:34.754Z,85.01
2019-02-07T15:49:37.171Z,84.70
2019-02-07T15:54:39.859Z,84.81
2019-02-07T15:59:47.438Z,84.99
2019-02-07T16:04:49.950Z,84.88
2019-02-07T16:09:52.460Z,84.83
2019-02-07T16:14:54.969Z,85.11
2019-02-07T16:19:57.585Z,85.29
2019-02-07T16:25:00.014Z,85.57
2019-02-07T16:30:06.580Z,85.53
2019-02-07T16:35:09.735Z,85.68
2019-02-07T16:40:12.939Z,85.68
2019-02-07T16:45:16.866Z,85.73
2019-02-07T16:50:19.744Z,85.82
2019-02-07T16:55:22.515Z,86.05
2019-02-07T17:00:25.355Z,86.24
2019-02-07T17:05:28.395Z,86.55
2019-02-07T17:10:32.160Z,87.10
2019-02-07T17:15:35.359Z,87.42
2019-02-07T17:20:38.571Z,87.53
2019-02-07T17:25:41.230Z,87.43
2019-02-07T17:30:43.780Z,87.46
2019-02-07T17:35:46.307Z,87.45
2019-02-07T17:40:48.835Z,87.46
2019-02-07T17:45:51.365Z,87.18
2019-02-07T17:50:53.973Z,86.93
2019-02-07T17:55:56.362Z,86.79
2019-02-07T18:01:03.697Z,86.92
2019-02-07T18:06:07.680Z,87.07
2019-02-07T18:11:10.161Z,87.38
2019-02-07T18:16:12.620Z,87.33
2019-02-07T18:21:15.080Z,87.44
2019-02-07T18:26:17.650Z,87.84
2019-02-07T18:31:20.264Z,87.67
2019-02-07T18:36:23.274Z,87.92
2019-02-07T18:41:25.975Z,88.35
2019-02-07T18:46:28.520Z,88.54
2019-02-07T18:51:31.199Z,88.46
2019-02-07T18:56:33.677Z,88.64
2019-02-07T19:01:36.146Z,88.77
2019-02-07T19:06:38.535Z,88.96
2019-02-07T19:11:40.955Z,89.14
2019-02-07T19:16:44.022Z,89.35
2019-02-07T19:21:56.441Z,89.53
2019-02-07T19:26:50.834Z,89.91
2019-02-07T19:31:53.513Z,90.21
2019-02-07T19:36:55.938Z,90.31
2019-02-07T19:42:09.795Z,90.60
2019-02-07T19:47:15.110Z,90.79
2019-02-07T19:52:20.446Z,90.90
2019-02-07T19:57:25.695Z,91.10
2019-02-07T20:02:30.901Z,91.31
2019-02-07T20:07:36.339Z,91.59
2019-02-07T20:12:42.486Z,91.80
2019-02-07T20:17:48.234Z,92.02
2019-02-07T20:22:53.458Z,92.10
2019-02-07T20:27:58.709Z,92.04
2019-02-07T20:33:05.191Z,92.13
2019-02-07T20:38:11.225Z,92.20
2019-02-07T20:43:16.405Z,92.30
2019-02-07T20:48:21.554Z,92.32
2019-02-07T20:53:26.825Z,92.14
2019-02-07T20:58:32.062Z,92.41
2019-02-07T21:03:37.306Z,92.45
2019-02-07T21:08:42.535Z,92.60
2019-02-07T21:13:47.766Z,92.58
2019-02-07T21:18:52.900Z,92.60
2019-02-07T21:23:58.270Z,92.63
2019-02-07T21:29:03.470Z,92.60
2019-02-07T21:34:08.721Z,92.57
2019-02-07T21:39:13.950Z,92.68
2019-02-07T21:44:19.294Z,92.79
2019-02-07T21:49:24.585Z,92.95
2019-02-07T21:54:30.051Z,92.88
2019-02-07T21:59:36.331Z,92.80
2019-02-07T22:04:41.586Z,92.76
2019-02-07T22:09:46.886Z,92.68
2019-02-07T22:14:52.199Z,92.60
2019-02-07T22:19:57.493Z,92.35
2019-02-07T22:25:03.001Z,92.20
2019-02-07T22:30:11.021Z,92.17
2019-02-07T22:35:16.778Z,92.03
2019-02-07T22:40:22.974Z,91.98
2019-02-07T22:45:28.406Z,91.96
2019-02-07T22:50:33.805Z,91.91
2019-02-07T22:55:39.115Z,91.76
2019-02-07T23:01:17.635Z,91.76
2019-02-07T23:06:23.050Z,91.86
2019-02-07T23:11:28.480Z,91.82
2019-02-07T23:16:33.845Z,91.71
2019-02-07T23:21:39.104Z,91.59
2019-02-07T23:26:44.264Z,91.51
2019-02-07T23:31:49.620Z,91.49
2019-02-07T23:36:54.930Z,91.54
2019-02-07T23:42:00.282Z,91.60
2019-02-07T23:47:05.629Z,91.64
2019-02-07T23:52:10.922Z,91.62
2019-02-07T23:57:17.581Z,91.61
